LFPM 231200Z AUTO VRB02KT CAVOK 18/08 Q0995

2019/04/23 12:00 LFPM 231200Z AUTO VRB02KT CAVOK 18/08 Q0995 St Louis SEO Company | St Louis Web Design and Internet Marketing